createdAt,value
2023-05-18T00:00:25.337Z,57.83
2023-05-18T00:02:55.122Z,57.98
2023-05-18T00:05:22.041Z,58.17
2023-05-18T00:07:48.923Z,57.98
2023-05-18T00:10:16.037Z,58.06
2023-05-18T00:12:43.100Z,58.34
2023-05-18T00:15:12.646Z,58.52
2023-05-18T00:17:40.204Z,58.49
2023-05-18T00:20:09.908Z,58.49
2023-05-18T00:22:36.934Z,58.50
2023-05-18T00:25:04.220Z,58.42
2023-05-18T00:27:31.605Z,58.33
2023-05-18T00:29:58.431Z,58.43
2023-05-18T00:32:25.722Z,58.64
2023-05-18T00:34:54.518Z,58.72
2023-05-18T00:37:23.112Z,58.61
2023-05-18T00:39:50.059Z,58.75
2023-05-18T00:42:17.021Z,58.64
2023-05-18T00:44:44.506Z,58.96
2023-05-18T00:47:11.687Z,58.86
2023-05-18T00:49:38.509Z,58.80
2023-05-18T00:52:06.925Z,59.03
2023-05-18T00:54:36.063Z,59.18
2023-05-18T00:57:03.301Z,58.83
2023-05-18T00:59:30.787Z,59.02
2023-05-18T01:01:58.411Z,59.31
2023-05-18T01:04:26.126Z,59.37
2023-05-18T01:06:56.493Z,59.31
2023-05-18T01:09:23.755Z,59.32
2023-05-18T01:12:00.252Z,59.26
2023-05-18T01:14:33.134Z,59.38
2023-05-18T01:17:11.711Z,59.51
2023-05-18T01:20:07.872Z,59.55
2023-05-18T01:22:48.783Z,59.40
2023-05-18T01:25:21.711Z,59.65
2023-05-18T01:27:51.547Z,59.91
2023-05-18T01:30:19.007Z,59.66
2023-05-18T01:32:47.071Z,59.68
2023-05-18T01:35:14.093Z,59.95
2023-05-18T01:37:41.179Z,59.84
2023-05-18T01:40:09.508Z,60.04
2023-05-18T01:42:43.545Z,60.00
2023-05-18T01:45:19.431Z,60.23
2023-05-18T01:47:48.845Z,59.97
2023-05-18T01:50:19.484Z,60.01
2023-05-18T01:52:51.855Z,60.00
2023-05-18T01:55:20.893Z,60.11
2023-05-18T01:57:51.803Z,60.29
2023-05-18T02:00:21.622Z,60.14
2023-05-18T02:02:48.982Z,60.57
2023-05-18T02:05:16.272Z,60.54
2023-05-18T02:14:00.839Z,60.59
2023-05-18T02:16:28.956Z,60.68
2023-05-18T02:18:56.248Z,60.60
2023-05-18T02:21:43.582Z,60.67
2023-05-18T02:24:12.560Z,60.68
2023-05-18T02:26:39.631Z,60.85
2023-05-18T02:29:06.719Z,60.63
2023-05-18T02:31:36.219Z,60.86
2023-05-18T02:34:03.711Z,61.01
2023-05-18T02:36:40.175Z,61.09
2023-05-18T02:39:07.969Z,60.97
2023-05-18T02:41:35.935Z,61.10
2023-05-18T02:44:03.512Z,61.06
2023-05-18T02:46:30.956Z,61.42
2023-05-18T02:48:59.535Z,61.19
2023-05-18T02:51:26.795Z,61.19
2023-05-18T02:53:53.831Z,61.30
2023-05-18T02:56:21.943Z,61.29
2023-05-18T02:58:48.907Z,61.63
2023-05-18T03:01:15.745Z,61.53
2023-05-18T03:03:43.833Z,61.28
2023-05-18T03:06:14.199Z,61.09
2023-05-18T03:08:42.741Z,61.39
2023-05-18T03:11:09.649Z,61.42
2023-05-18T03:13:36.462Z,61.51
2023-05-18T03:16:10.933Z,61.79
2023-05-18T03:18:38.199Z,61.77
2023-05-18T03:21:05.741Z,61.85
2023-05-18T03:23:34.254Z,61.78
2023-05-18T03:26:04.216Z,61.69
2023-05-18T03:28:31.475Z,61.78
2023-05-18T03:30:58.468Z,61.79
2023-05-18T03:33:43.820Z,61.94
2023-05-18T03:36:13.018Z,61.87
2023-05-18T03:38:41.896Z,61.90
2023-05-18T03:41:09.768Z,62.16
2023-05-18T03:43:36.744Z,62.09
2023-05-18T03:46:04.310Z,62.12
2023-05-18T03:48:31.201Z,61.93
2023-05-18T03:50:58.372Z,61.94
2023-05-18T03:53:27.025Z,62.08
2023-05-18T03:55:55.372Z,62.09
2023-05-18T03:58:22.661Z,62.16
2023-05-18T04:00:49.815Z,62.27
2023-05-18T04:03:17.155Z,62.08
2023-05-18T04:05:44.743Z,62.00
2023-05-18T04:08:14.552Z,62.28
2023-05-18T04:10:42.269Z,62.19
2023-05-18T04:13:10.982Z,62.33
2023-05-18T04:15:38.468Z,62.33
2023-05-18T04:18:05.637Z,62.30
2023-05-18T04:20:32.778Z,62.53
2023-05-18T04:23:00.153Z,62.39
2023-05-18T04:25:28.682Z,62.38
2023-05-18T04:27:57.012Z,62.30
2023-05-18T04:30:30.209Z,62.29
2023-05-18T04:33:00.302Z,62.35
2023-05-18T04:35:34.336Z,62.45
2023-05-18T04:38:02.673Z,62.31
2023-05-18T04:40:34.522Z,62.08
2023-05-18T04:43:01.561Z,62.34
2023-05-18T04:45:30.643Z,62.04
2023-05-18T04:47:59.085Z,62.20
2023-05-18T04:50:26.387Z,62.17
2023-05-18T04:52:53.844Z,62.19
2023-05-18T04:55:29.242Z,62.41
2023-05-18T04:57:57.151Z,62.35
2023-05-18T05:00:29.464Z,62.33
2023-05-18T05:02:58.032Z,62.34
2023-05-18T05:05:26.484Z,62.04
2023-05-18T05:07:54.434Z,62.37
2023-05-18T05:10:22.030Z,62.28
2023-05-18T05:12:49.699Z,61.66
2023-05-18T05:15:16.958Z,62.45
2023-05-18T05:17:46.522Z,62.22
2023-05-18T05:20:13.570Z,62.20
2023-05-18T05:22:40.544Z,61.99
2023-05-18T05:25:08.173Z,62.04
2023-05-18T05:27:35.280Z,61.98
2023-05-18T05:30:02.231Z,62.10
2023-05-18T05:32:29.403Z,62.20
2023-05-18T05:34:57.642Z,62.20
2023-05-18T05:37:24.491Z,61.99
2023-05-18T05:39:51.778Z,61.90
2023-05-18T05:42:19.663Z,61.98
2023-05-18T05:44:46.525Z,61.96
2023-05-18T05:47:13.382Z,62.10
2023-05-18T05:49:40.240Z,62.00
2023-05-18T05:52:08.505Z,62.10
2023-05-18T05:54:36.551Z,62.03
2023-05-18T05:57:04.617Z,62.02
2023-05-18T05:59:31.668Z,61.95
2023-05-18T06:01:58.806Z,62.06
2023-05-18T06:04:26.090Z,61.90
2023-05-18T06:06:53.166Z,62.19
2023-05-18T06:09:21.352Z,61.93
2023-05-18T06:11:48.754Z,62.10
2023-05-18T06:14:15.760Z,62.01
2023-05-18T06:16:42.949Z,62.02
2023-05-18T06:19:10.081Z,61.98
2023-05-18T06:21:37.040Z,61.81
2023-05-18T06:24:05.187Z,62.10
2023-05-18T06:26:33.348Z,62.20
2023-05-18T06:29:00.418Z,62.04
2023-05-18T06:31:28.924Z,62.11
2023-05-18T06:33:57.004Z,62.30
2023-05-18T06:36:23.884Z,61.90
2023-05-18T06:38:50.830Z,61.67
2023-05-18T06:41:17.688Z,61.91
2023-05-18T06:43:46.216Z,61.89
2023-05-18T06:46:19.599Z,61.91
2023-05-18T06:48:47.171Z,61.97
2023-05-18T06:51:16.444Z,61.93
2023-05-18T06:53:43.735Z,61.73
2023-05-18T06:56:13.055Z,61.96
2023-05-18T06:58:39.820Z,61.74
2023-05-18T07:01:08.209Z,61.95
2023-05-18T07:03:35.878Z,61.73
2023-05-18T07:06:04.570Z,61.62
2023-05-18T07:08:32.163Z,61.63
2023-05-18T07:11:02.378Z,61.67
2023-05-18T07:13:29.541Z,61.49
2023-05-18T07:15:57.040Z,61.74
2023-05-18T07:18:26.575Z,61.65
2023-05-18T07:20:53.394Z,61.44
2023-05-18T07:23:20.167Z,61.42
2023-05-18T07:25:46.978Z,61.32
2023-05-18T07:28:14.008Z,61.14
2023-05-18T07:30:40.990Z,61.02
2023-05-18T07:33:07.903Z,61.37
2023-05-18T07:35:36.645Z,61.16
2023-05-18T07:38:03.856Z,60.94
2023-05-18T07:40:30.770Z,61.18
2023-05-18T07:42:57.720Z,60.89
2023-05-18T07:45:24.500Z,60.73
2023-05-18T07:47:51.394Z,61.05
2023-05-18T07:50:18.498Z,60.75
2023-05-18T07:52:46.724Z,60.83
2023-05-18T07:55:13.897Z,60.47
2023-05-18T07:57:41.436Z,60.34
2023-05-18T08:00:10.410Z,60.36
2023-05-18T08:02:38.114Z,60.39
2023-05-18T08:05:49.522Z,60.08
2023-05-18T08:08:18.781Z,60.00
2023-05-18T08:10:45.594Z,60.04
2023-05-18T08:13:12.565Z,59.55
2023-05-18T08:15:41.082Z,59.23
2023-05-18T08:18:07.980Z,59.19
2023-05-18T08:20:35.529Z,59.09
2023-05-18T08:23:06.153Z,58.93
2023-05-18T08:25:36.159Z,59.08
2023-05-18T08:28:18.835Z,58.59
2023-05-18T08:30:45.691Z,58.51
2023-05-18T08:33:12.778Z,58.23
2023-05-18T08:35:40.036Z,58.10
2023-05-18T08:38:06.976Z,57.68
2023-05-18T08:40:42.679Z,57.53
2023-05-18T08:43:19.076Z,57.40
2023-05-18T08:45:51.973Z,57.32
2023-05-18T08:48:24.388Z,56.74
2023-05-18T08:50:54.870Z,56.79
2023-05-18T08:53:24.725Z,56.44
2023-05-18T08:55:57.836Z,56.59
2023-05-18T08:58:32.554Z,56.63
2023-05-18T09:00:59.488Z,56.40
2023-05-18T09:03:26.610Z,56.48
2023-05-18T09:05:54.060Z,56.70
2023-05-18T09:08:24.324Z,56.36
2023-05-18T09:10:56.892Z,56.38
2023-05-18T09:13:24.153Z,56.32
2023-05-18T09:15:51.499Z,55.99
2023-05-18T09:18:19.156Z,55.74
2023-05-18T09:20:48.295Z,55.62
2023-05-18T09:23:20.596Z,56.00
2023-05-18T09:25:55.350Z,55.77
2023-05-18T09:28:35.491Z,55.71
2023-05-18T09:31:03.683Z,55.88
2023-05-18T09:33:36.829Z,55.55
2023-05-18T09:36:05.765Z,55.47
2023-05-18T09:38:36.953Z,55.17
2023-05-18T09:41:04.351Z,54.99
2023-05-18T09:43:36.015Z,54.68
2023-05-18T09:46:07.713Z,54.57
2023-05-18T09:48:35.315Z,54.64
2023-05-18T09:51:04.925Z,54.77
2023-05-18T09:53:32.607Z,54.70
2023-05-18T09:56:04.053Z,54.97
2023-05-18T09:58:34.333Z,54.55
2023-05-18T10:01:02.971Z,54.18
2023-05-18T10:03:33.937Z,54.51
2023-05-18T10:06:04.376Z,54.44
2023-05-18T10:08:32.145Z,54.25
2023-05-18T10:10:59.564Z,54.46
2023-05-18T10:13:28.031Z,54.36
2023-05-18T10:15:58.964Z,54.35
2023-05-18T10:18:27.288Z,53.81
2023-05-18T10:20:55.976Z,54.15
2023-05-18T10:23:25.234Z,53.99
2023-05-18T10:25:54.359Z,54.12
2023-05-18T10:28:26.069Z,53.60
2023-05-18T10:30:54.828Z,53.79
2023-05-18T10:33:29.693Z,53.44
2023-05-18T10:36:06.036Z,53.14
2023-05-18T10:38:34.608Z,53.05
2023-05-18T10:41:05.632Z,53.17
2023-05-18T10:43:41.796Z,53.36
2023-05-18T10:46:09.834Z,53.31
2023-05-18T10:48:40.862Z,52.72
2023-05-18T10:51:19.343Z,53.24
2023-05-18T10:53:48.719Z,53.26
2023-05-18T10:56:16.788Z,52.98
2023-05-18T10:58:45.348Z,53.15
2023-05-18T11:01:13.791Z,52.63
2023-05-18T11:03:42.388Z,52.85
2023-05-18T11:06:11.521Z,53.10
2023-05-18T11:08:48.652Z,53.23
2023-05-18T11:11:18.645Z,52.84
2023-05-18T11:13:49.118Z,52.98
2023-05-18T11:16:16.931Z,52.81
2023-05-18T11:18:47.024Z,52.96
2023-05-18T11:21:36.459Z,52.47
2023-05-18T11:24:19.937Z,52.36
2023-05-18T11:26:48.045Z,52.53
2023-05-18T11:29:20.079Z,52.40
2023-05-18T11:31:49.262Z,51.96
2023-05-18T11:34:42.401Z,52.07
2023-05-18T11:37:10.460Z,52.00
2023-05-18T11:39:47.808Z,51.85
2023-05-18T11:42:19.559Z,51.71
2023-05-18T11:44:52.629Z,51.49
2023-05-18T11:47:19.991Z,51.57
2023-05-18T11:49:49.321Z,51.58
2023-05-18T11:52:20.631Z,51.45
2023-05-18T11:54:50.700Z,51.58
2023-05-18T11:57:18.931Z,51.37
2023-05-18T11:59:47.134Z,51.18
2023-05-18T12:02:20.242Z,51.22
2023-05-18T12:05:02.607Z,51.42
2023-05-18T12:07:34.424Z,50.97
2023-05-18T12:10:02.926Z,51.07
2023-05-18T12:12:30.070Z,50.95
2023-05-18T12:14:58.024Z,50.63
2023-05-18T12:17:39.955Z,50.37
2023-05-18T12:20:15.542Z,50.60
2023-05-18T12:22:43.773Z,50.60
2023-05-18T12:25:11.320Z,50.40
2023-05-18T12:27:41.013Z,50.37
2023-05-18T12:30:12.258Z,50.65
2023-05-18T12:32:44.355Z,50.57
2023-05-18T12:35:12.666Z,50.31
2023-05-18T12:37:46.359Z,50.27
2023-05-18T12:40:20.238Z,50.51
2023-05-18T12:42:54.010Z,50.07
2023-05-18T12:45:23.735Z,50.00
2023-05-18T12:47:55.486Z,50.22
2023-05-18T12:50:28.564Z,50.12
2023-05-18T12:52:56.614Z,50.15
2023-05-18T12:55:25.346Z,49.85
2023-05-18T12:58:00.574Z,50.05
2023-05-18T13:00:27.472Z,50.19
2023-05-18T13:02:54.318Z,50.07
2023-05-18T13:05:25.377Z,49.71
2023-05-18T13:07:52.738Z,49.81
2023-05-18T13:10:20.444Z,49.65
2023-05-18T13:12:49.033Z,49.78
2023-05-18T13:15:17.268Z,49.62
2023-05-18T13:17:58.249Z,49.68
2023-05-18T13:20:36.562Z,49.48
2023-05-18T13:23:06.158Z,49.52
2023-05-18T13:25:33.332Z,49.06
2023-05-18T13:28:01.869Z,49.10
2023-05-18T13:30:30.319Z,48.99
2023-05-18T13:32:57.713Z,49.05
2023-05-18T13:35:24.658Z,48.49
2023-05-18T13:37:53.427Z,48.61
2023-05-18T13:40:25.754Z,48.51
2023-05-18T13:42:53.284Z,48.25
2023-05-18T13:45:21.881Z,48.37
2023-05-18T13:47:53.761Z,48.11
2023-05-18T13:50:21.397Z,48.18
2023-05-18T13:52:48.722Z,47.85
2023-05-18T13:55:17.114Z,47.53
2023-05-18T13:57:45.043Z,47.53
2023-05-18T14:00:14.005Z,47.15
2023-05-18T14:02:41.472Z,47.14
2023-05-18T14:05:08.890Z,46.89
2023-05-18T14:07:37.114Z,47.00
2023-05-18T14:10:11.116Z,46.45
2023-05-18T14:12:42.795Z,46.73
2023-05-18T14:15:11.142Z,46.48
2023-05-18T14:17:40.914Z,46.29
2023-05-18T14:20:11.172Z,46.32
2023-05-18T14:22:38.515Z,46.40
2023-05-18T14:25:06.382Z,46.32
2023-05-18T14:27:33.273Z,46.62
2023-05-18T14:30:01.804Z,46.53
2023-05-18T14:32:31.827Z,46.37
2023-05-18T14:34:58.741Z,46.09
2023-05-18T14:37:25.781Z,46.25
2023-05-18T14:39:52.784Z,46.24
2023-05-18T14:42:19.610Z,46.43
2023-05-18T14:44:46.887Z,46.31
2023-05-18T14:47:15.179Z,46.22
2023-05-18T14:49:42.082Z,45.96
2023-05-18T14:52:08.932Z,45.81
2023-05-18T14:54:36.787Z,45.78
2023-05-18T14:57:03.976Z,45.85
2023-05-18T14:59:31.830Z,45.90
2023-05-18T15:01:58.887Z,45.90
2023-05-18T15:04:35.233Z,45.67
2023-05-18T15:07:02.113Z,45.58
2023-05-18T15:09:28.798Z,45.33
2023-05-18T15:11:55.822Z,44.73
2023-05-18T15:14:24.271Z,45.27
2023-05-18T15:16:51.023Z,45.11
2023-05-18T15:19:17.854Z,45.29
2023-05-18T15:21:46.044Z,45.20
2023-05-18T15:24:12.867Z,45.31
2023-05-18T15:26:39.806Z,45.27
2023-05-18T15:29:06.549Z,44.97
2023-05-18T15:31:33.865Z,45.13
2023-05-18T15:34:00.740Z,45.24
2023-05-18T15:36:27.930Z,45.15
2023-05-18T15:38:56.273Z,44.61
2023-05-18T15:41:23.238Z,44.57
2023-05-18T15:43:49.968Z,44.46
2023-05-18T15:46:16.861Z,44.33
2023-05-18T15:48:43.604Z,44.60
2023-05-18T15:51:10.680Z,44.48
2023-05-18T15:53:37.560Z,44.69
2023-05-18T15:56:09.554Z,44.80
2023-05-18T15:58:36.345Z,44.58
2023-05-18T16:01:03.309Z,44.62
2023-05-18T16:03:33.589Z,44.71
2023-05-18T16:06:00.843Z,44.80
2023-05-18T16:08:27.717Z,44.74
2023-05-18T16:10:54.645Z,44.88
2023-05-18T16:13:25.924Z,44.92
2023-05-18T16:15:52.739Z,45.04
2023-05-18T16:18:19.701Z,44.95
2023-05-18T16:20:46.611Z,45.01
2023-05-18T16:23:14.007Z,45.00
2023-05-18T16:25:40.843Z,45.12
2023-05-18T16:28:07.675Z,45.20
2023-05-18T16:30:36.169Z,45.19
2023-05-18T16:33:03.830Z,45.25
2023-05-18T16:35:31.849Z,45.15
2023-05-18T16:38:01.403Z,45.37
2023-05-18T16:40:31.435Z,45.52
2023-05-18T16:42:58.489Z,45.37
2023-05-18T16:45:27.127Z,45.46
2023-05-18T16:47:55.517Z,45.42
2023-05-18T16:50:22.529Z,45.46
2023-05-18T16:52:49.393Z,45.54
2023-05-18T16:55:16.365Z,46.00
2023-05-18T16:57:43.461Z,45.81
2023-05-18T17:00:13.172Z,45.74
2023-05-18T17:02:40.207Z,45.76
2023-05-18T17:05:09.213Z,45.54
2023-05-18T17:07:37.719Z,45.51
2023-05-18T17:10:05.510Z,45.71
2023-05-18T17:12:33.546Z,45.79
2023-05-18T17:15:02.762Z,45.82
2023-05-18T17:17:29.891Z,45.84
2023-05-18T17:19:58.356Z,46.19
2023-05-18T17:22:26.788Z,46.07
2023-05-18T17:24:53.641Z,46.28
2023-05-18T17:27:20.399Z,45.98
2023-05-18T17:29:47.302Z,46.41
2023-05-18T17:32:13.977Z,46.25
2023-05-18T17:34:41.049Z,46.41
2023-05-18T17:37:08.042Z,46.79
2023-05-18T17:39:36.196Z,46.50
2023-05-18T17:42:03.427Z,46.69
2023-05-18T17:44:31.312Z,46.58
2023-05-18T17:46:58.661Z,46.51
2023-05-18T17:49:25.563Z,46.65
2023-05-18T17:51:54.824Z,46.80
2023-05-18T17:54:22.389Z,46.80
2023-05-18T17:56:50.724Z,46.64
2023-05-18T17:59:17.569Z,46.40
2023-05-18T18:01:44.329Z,46.45
2023-05-18T18:04:11.141Z,46.50
2023-05-18T18:06:37.886Z,46.83
2023-05-18T18:09:07.588Z,46.75
2023-05-18T18:11:34.650Z,46.98
2023-05-18T18:14:02.698Z,46.99
2023-05-18T18:16:29.675Z,47.15
2023-05-18T18:18:56.860Z,47.12
2023-05-18T18:21:23.766Z,47.25
2023-05-18T18:23:50.565Z,47.36
2023-05-18T18:26:17.314Z,47.35
2023-05-18T18:28:43.946Z,47.27
2023-05-18T18:31:11.987Z,47.33
2023-05-18T18:33:38.715Z,47.24
2023-05-18T18:36:07.456Z,47.31
2023-05-18T18:38:34.242Z,47.74
2023-05-18T18:41:06.515Z,47.79
2023-05-18T18:43:35.167Z,47.69
2023-05-18T18:46:01.982Z,48.09
2023-05-18T18:48:30.223Z,47.90
2023-05-18T18:50:57.027Z,47.92
2023-05-18T18:53:23.835Z,48.16
2023-05-18T18:55:50.666Z,47.77
2023-05-18T18:58:17.482Z,47.87
2023-05-18T19:00:44.248Z,47.80
2023-05-18T19:03:11.128Z,48.04
2023-05-18T19:05:39.312Z,47.92
2023-05-18T19:08:06.408Z,47.86
2023-05-18T19:10:34.341Z,47.92
2023-05-18T19:13:05.417Z,48.04
2023-05-18T19:15:32.635Z,48.16
2023-05-18T19:18:00.029Z,48.70
2023-05-18T19:20:28.052Z,48.25
2023-05-18T19:22:56.224Z,48.40
2023-05-18T19:25:26.444Z,48.32
2023-05-18T19:27:53.971Z,48.58
2023-05-18T19:30:21.722Z,48.54
2023-05-18T19:32:49.201Z,48.92
2023-05-18T19:35:18.872Z,48.83
2023-05-18T19:37:46.690Z,48.66
2023-05-18T19:40:15.199Z,48.87
2023-05-18T19:42:42.070Z,48.91
2023-05-18T19:45:08.977Z,48.79
2023-05-18T19:47:36.355Z,48.95
2023-05-18T19:50:04.793Z,49.12
2023-05-18T19:52:33.504Z,49.15
2023-05-18T19:55:00.580Z,49.32
2023-05-18T19:57:29.167Z,49.50
2023-05-18T19:59:56.146Z,49.51
2023-05-18T20:02:22.797Z,49.44
2023-05-18T20:04:50.422Z,49.61
2023-05-18T20:07:18.025Z,49.56
2023-05-18T20:09:44.762Z,49.96
2023-05-18T20:12:11.479Z,49.97
2023-05-18T20:14:39.656Z,50.09
2023-05-18T20:17:06.605Z,49.97
2023-05-18T20:19:33.471Z,50.49
2023-05-18T20:22:00.166Z,50.20
2023-05-18T20:24:26.910Z,50.12
2023-05-18T20:26:53.638Z,50.60
2023-05-18T20:29:20.292Z,50.62
2023-05-18T20:31:48.627Z,50.59
2023-05-18T20:34:15.564Z,50.72
2023-05-18T20:36:42.257Z,50.58
2023-05-18T20:39:09.176Z,51.01
2023-05-18T20:41:40.224Z,51.15
2023-05-18T20:44:07.351Z,51.02
2023-05-18T20:46:34.298Z,50.87
2023-05-18T20:49:04.155Z,50.94
2023-05-18T20:51:31.463Z,50.95
2023-05-18T20:53:58.972Z,51.25
2023-05-18T20:56:26.731Z,51.53
2023-05-18T20:58:53.730Z,51.50
2023-05-18T21:01:23.784Z,51.55
2023-05-18T21:03:50.827Z,51.31
2023-05-18T21:06:18.995Z,51.46
2023-05-18T21:08:45.777Z,51.57
2023-05-18T21:11:12.456Z,51.86
2023-05-18T21:13:39.132Z,51.65
2023-05-18T21:16:08.352Z,52.02
2023-05-18T21:18:35.976Z,51.78
2023-05-18T21:21:03.837Z,51.93
2023-05-18T21:23:32.010Z,52.45
2023-05-18T21:25:58.790Z,52.62
2023-05-18T21:28:25.637Z,52.99
2023-05-18T21:30:52.951Z,52.79
2023-05-18T21:35:52.139Z,53.53
2023-05-18T21:38:18.841Z,53.75
2023-05-18T21:40:47.025Z,53.89
2023-05-18T21:43:14.053Z,53.96
2023-05-18T21:45:40.916Z,54.06
2023-05-18T21:48:08.385Z,54.61
2023-05-18T21:50:35.599Z,54.72
2023-05-18T21:53:05.163Z,54.70
2023-05-18T21:55:33.698Z,55.16
2023-05-18T21:58:01.821Z,55.21
2023-05-18T22:00:29.922Z,55.34
2023-05-18T22:02:58.101Z,55.60
2023-05-18T22:05:24.808Z,56.12
2023-05-18T22:07:52.249Z,55.86
2023-05-18T22:10:19.109Z,56.32
2023-05-18T22:12:46.006Z,56.68
2023-05-18T22:15:14.113Z,56.22
2023-05-18T22:17:40.826Z,56.71
2023-05-18T22:20:10.429Z,56.87
2023-05-18T22:22:37.538Z,56.73
2023-05-18T22:25:04.589Z,57.17
2023-05-18T22:27:31.540Z,57.16
2023-05-18T22:29:58.328Z,57.16
2023-05-18T22:32:26.436Z,57.32
2023-05-18T22:34:53.865Z,57.48
2023-05-18T22:37:22.220Z,57.71
2023-05-18T22:39:48.923Z,57.90
2023-05-18T22:42:15.678Z,57.75
2023-05-18T22:44:42.454Z,57.76
2023-05-18T22:47:09.541Z,57.98
2023-05-18T22:49:37.782Z,58.00
2023-05-18T22:52:06.666Z,57.85
2023-05-18T22:54:33.632Z,58.01
2023-05-18T22:57:00.378Z,57.94
2023-05-18T22:59:28.743Z,58.42
2023-05-18T23:01:55.699Z,58.63
2023-05-18T23:04:22.551Z,58.20
2023-05-18T23:06:51.479Z,58.75
2023-05-18T23:09:18.494Z,58.56
2023-05-18T23:11:46.034Z,58.46
2023-05-18T23:14:12.937Z,58.59
2023-05-18T23:16:42.961Z,58.98
2023-05-18T23:19:10.275Z,58.94
2023-05-18T23:21:37.189Z,58.98
2023-05-18T23:24:06.500Z,58.69
2023-05-18T23:26:33.868Z,58.94
2023-05-18T23:29:00.814Z,59.14
2023-05-18T23:31:27.589Z,58.98
2023-05-18T23:33:54.967Z,59.53
2023-05-18T23:36:27.128Z,59.44
2023-05-18T23:38:58.954Z,59.36
2023-05-18T23:41:29.528Z,59.67
2023-05-18T23:43:57.264Z,59.53
2023-05-18T23:46:24.631Z,59.58
2023-05-18T23:48:52.461Z,59.40
2023-05-18T23:51:21.259Z,59.91
2023-05-18T23:53:49.406Z,59.84
2023-05-18T23:56:16.862Z,59.51
2023-05-18T23:58:46.554Z,59.75
